Station: Coolangatta  

  Atmospheric Gas Attenuation - ITU Rec 676-11   ----------------- dB/100km -----------------
Date Time Temp RH % AH g/m3 Dew Point Wind Direction Speed kph Gust kph Barometer mB Rainfall Since 9am 24GHz 47GHz 76GHz 122GHz 134GHz 241GHz
08/05 12:30 19.7 32 5.43 2.6 13 17 1018.6 0 12.7 19.9 26.1 67.9 55.1 187.2
08/05 12:20 20 30 5.18 1.9 15 19 1018.8 0 12.1 19.6 25.2 65.5 52.2 177.1
08/05 12:10 19.5 31 5.2 1.9 7 7 1018.9 0 12.2 19.7 25.4 66.0 52.7 178.9
08/05 12:00 19.4 32 5.34 2.3 9 17 1019.1 0 12.5 19.9 25.9 67.4 54.3 184.5
08/05 11:50 19.4 32 5.34 2.3 11 13 1019 0 12.5 19.9 25.9 67.3 54.3 184.5
08/05 11:40 19.5 32 5.37 2.4 9 11 1019.2 0 12.5 19.9 26.0 67.5 54.6 185.5
08/05 11:30 19.4 33 5.51 2.7 7 17 1019.5 0 12.8 20.1 26.5 68.9 56.2 191.1
08/05 11:20 18.9 28 4.54 0 9 11 1019.6 0 10.8 19.0 23.5 60.8 46.1 155.4
08/05 11:10 18.9 31 5.02 1.4 15 17 1019.7 0 11.8 19.6 25.0 65.0 51.2 173.5
08/05 11:00 18.4 31 4.88 1 9 15 1019.8 0 11.5 19.5 24.7 64.2 50.0 169.2
08/05 10:50 18.5 28 4.43 -0.3 13 15 1020 0 10.6 18.9 23.3 60.2 45.2 152.1
08/05 10:40 18.3 28 4.38 -0.5 11 15 1020.2 0 10.5 18.9 23.2 59.9 44.8 150.6
08/05 10:30 18.1 32 4.94 1.2 13 20 1020.4 0 11.7 19.7 25.0 65.0 50.9 172.2
08/05 10:20 18 30 4.61 0.2 9 11 1020.4 0 11.0 19.3 24.0 62.2 47.4 159.9
08/05 10:10 17.8 32 4.86 0.9 11 13 1020.4 0 11.5 19.6 24.9 64.5 50.2 169.8
08/05 10:00 17.7 34 5.13 1.7 17 20 1020.6 0 12.1 20.0 25.8 67.0 53.2 180.4
08/05 09:50 17.5 31 4.62 0.2 17 22 1020.5 0 11.0 19.4 24.2 62.6 47.8 161.2
08/05 09:40 17.3 30 4.42 -0.4 17 20 1020.5 0 10.6 19.2 23.6 61.0 45.7 154.0
08/05 09:30 17.2 31 4.54 -0.1 15 20 1020.6 0 10.9 19.3 24.0 62.2 47.1 158.8
08/05 09:20 17.3 33 4.86 0.9 13 15 1020.7 0 11.5 19.8 25.0 64.9 50.5 170.9
08/05 09:10 16.8 33 4.72 0.5 13 17 1020.5 0 11.3 19.7 24.7 64.1 49.3 166.4
08/05 09:00 16.1 32 4.39 -0.6 13 20 1020.7 0 10.6 19.4 23.8 61.7 46.1 155.1
08/05 08:50 16 33 4.5 -0.2 15 17 1020.7 0.2 10.8 19.5 24.2 62.7 47.4 159.6
08/05 08:40 15.8 33 4.44 -0.4 17 20 1020.7 0.2 10.7 19.5 24.1 62.4 46.8 157.6
08/05 08:30 15.5 36 4.76 0.5 17 24 1020.6 0.2 11.4 20.0 25.2 65.4 50.5 170.7
08/05 08:20 15.4 36 4.73 0.4 13 15 1020.6 0.2 11.3 20.0 25.2 65.3 50.3 169.7
08/05 08:10 15 34 4.36 -0.7 15 20 1020.5 0.2 10.6 19.6 24.0 62.2 46.4 156.0
08/05 08:00 14.7 33 4.15 -1.4 17 24 1020.7 0.2 10.1 19.3 23.4 60.6 44.2 148.4
08/05 07:50 14.6 39 4.88 0.8 13 17 1020.3 0.2 11.7 20.3 25.9 67.2 52.4 177.3
08/05 07:40 14.2 35 4.27 -1 13 17 1020.3 0.2 10.4 19.6 24.0 62.0 45.8 154.0
08/05 07:30 13.9 38 4.56 -0.2 13 20 1020.2 0.2 11.0 20.0 25.0 64.9 49.3 166.0
08/05 07:20 13.6 37 4.35 -0.8 17 20 1020.1 0.2 10.6 19.8 24.4 63.2 47.1 158.2
08/05 07:10 12.8 43 4.82 0.5 11 13 1020.1 0.2 11.6 20.7 26.3 68.2 52.9 178.7
08/05 07:00 12.1 48 5.15 1.4 11 15 1020.1 0.2 12.3 21.3 27.7 71.9 57.3 193.9
08/05 06:50 11.8 49 5.16 1.4 9 9 1020.1 0.2 12.3 21.4 27.8 72.3 57.6 195.1
08/05 06:40 11.4 48 4.93 0.8 13 13 1019.9 0.2 11.9 21.1 27.1 70.4 55.1 186.4
08/05 06:30 10.9 50 4.97 0.9 13 17 1019.8 0.2 12.0 21.3 27.4 71.2 56.0 189.2
08/05 06:20 10.6 51 4.98 0.9 13 15 1019.4 0.2 12.0 21.4 27.5 71.5 56.3 190.2
08/05 06:10 11.6 42 4.37 -0.9 11 13 1019.2 0.2 10.7 20.2 25.0 64.9 48.4 162.8
08/05 06:00 12.4 38 4.15 -1.5 13 17 1019.3 0.2 10.2 19.8 24.0 62.2 45.5 152.4
08/05 05:50 12.9 36 4.06 -1.8 13 15 1019.1 0.2 10.0 19.5 23.6 61.0 44.2 147.9
08/05 05:40 12.7 36 4.01 -2 15 20 1019.1 0.2 9.9 19.5 23.5 60.7 43.7 146.3
08/05 05:30 13 36 4.08 -1.7 13 20 1018.9 0.2 10.0 19.5 23.6 61.1 44.3 148.5
08/05 05:20 13 38 4.31 -1 11 15 1018.6 0.2 10.5 19.8 24.4 63.2 46.9 157.6
08/05 05:10 12.5 41 4.51 -0.4 11 13 1018.5 0.2 10.9 20.2 25.2 65.4 49.5 166.6
08/05 05:00 12.9 40 4.51 -0.4 11 17 1018.4 0.2 10.9 20.1 25.1 65.1 49.2 165.7
08/05 04:50 12.6 44 4.87 0.7 7 9 1018.3 0.2 11.7 20.7 26.4 68.7 53.5 180.9
08/05 04:40 13.3 42 4.85 0.7 11 13 1018.1 0.2 11.6 20.5 26.1 67.9 52.8 178.5
08/05 04:30 13.5 42 4.91 0.9 11 15 1018 0.2 11.8 20.6 26.3 68.3 53.4 180.5
08/05 04:20 13.7 43 5.09 1.4 13 15 1017.8 0.2 12.1 20.8 26.8 69.8 55.3 187.3
08/05 04:10 14 41 4.95 1 17 20 1017.7 0.2 11.8 20.5 26.3 68.2 53.5 181.0
08/05 04:00 13.6 48 5.65 2.8 13 20 1017.7 0.2 13.3 21.6 28.9 75.1 61.9 210.6
08/05 03:50 13.8 50 5.96 3.6 13 15 1017.6 0.2 14.0 22.0 29.9 77.9 65.5 223.0
08/05 03:40 13.8 52 6.2 4.1 11 13 1017.4 0.2 14.5 22.3 30.8 80.2 68.3 233.1
08/05 03:30 14 52 6.27 4.3 13 20 1017.5 0.2 14.6 22.4 30.9 80.7 69.0 235.5
08/05 03:20 13.7 55 6.51 4.8 9 11 1017.4 0.2 15.1 22.8 31.9 83.4 72.2 246.6
08/05 03:10 14 55 6.63 5.1 11 11 1017.3 0.2 15.4 22.9 32.3 84.3 73.4 250.8
08/05 03:00 14.5 53 6.59 5 15 24 1017.5 0.2 15.3 22.7 31.9 83.4 72.5 247.6
08/05 02:50 14.5 55 6.84 5.6 11 13 1017.2 0.2 15.8 23.1 32.8 85.8 75.5 258.3
08/05 02:40 15.1 54 6.97 5.9 9 13 1017.5 0.2 16.1 23.2 33.1 86.5 76.5 262.0
08/05 02:30 14.9 56 7.14 6.2 13 20 1017.3 0.2 16.4 23.5 33.8 88.4 78.8 269.9
08/05 02:20 15.7 53 7.09 6.2 15 17 1017.2 0.2 16.3 23.2 33.3 87.0 77.4 265.1
08/05 02:10 15.9 53 7.18 6.3 19 24 1017.2 0.2 16.5 23.3 33.5 87.7 78.3 268.3
08/05 02:00 16 53 7.22 6.4 17 24 1017.2 0.2 16.6 23.3 33.6 88.0 78.7 269.7
08/05 01:50 16.3 52 7.21 6.4 17 19 1017.2 0.2 16.5 23.2 33.5 87.5 78.3 268.2
08/05 01:40 16.6 50 7.06 6.1 20 30 1017 0.2 16.2 22.9 32.8 85.7 76.1 260.8
08/05 01:30 16.7 50 7.11 6.2 20 32 1017.2 0.2 16.3 22.9 32.9 86.1 76.7 262.7
08/05 01:20 16.5 51 7.16 6.3 13 20 1017 0.2 16.4 23.1 33.2 86.8 77.5 265.4
08/05 01:10 16.6 51 7.2 6.4 19 24 1016.9 0.2 16.5 23.1 33.3 87.1 77.8 266.7
08/05 01:00 16.9 50 7.19 6.4 19 28 1017.1 0.2 16.5 23.0 33.2 86.7 77.4 265.4
08/05 00:50 17.2 48 7.03 6.1 26 28 1016.9 0.2 16.1 22.7 32.4 84.8 75.2 257.6
08/05 00:40 17.2 48 7.03 6.1 15 20 1016.7 0.2 16.1 22.7 32.4 84.8 75.2 257.6
08/05 00:30 17.5 47 7.01 6.1 20 33 1016.8 0.2 16.0 22.6 32.2 84.3 74.7 255.8
08/05 00:20 17.4 48 7.11 6.3 22 26 1016.5 0.2 16.3 22.7 32.6 85.3 76.0 260.2
08/05 00:10 17.6 47 7.05 6.2 13 17 1016.5 0.2 16.1 22.6 32.3 84.5 75.0 257.1
08/05 00:00 17.8 47 7.13 6.3 19 33 1016.7 0.2 16.3 22.7 32.6 85.1 75.8 259.8
07/05 23:50 17.5 47 7.01 6.1 19 22 1016.8 0.2 16.0 22.6 32.2 84.3 74.7 255.8
07/05 23:40 18.3 44 6.88 5.8 17 20 1016.5 0.2 15.7 22.2 31.5 82.2 72.4 247.9
07/05 23:30 18 45 6.91 5.9 15 24 1016.8 0.2 15.8 22.3 31.7 82.8 73.0 250.1
07/05 23:20 18.6 42 6.68 5.5 9 15 1016.8 0.2 15.3 21.8 30.7 80.0 69.8 238.9
07/05 23:10 18.7 42 6.72 5.5 11 15 1016.4 0.2 15.4 21.9 30.7 80.3 70.2 240.2
07/05 23:00 18.5 42 6.64 5.4 15 26 1016.5 0.2 15.2 21.8 30.5 79.7 69.4 237.5
07/05 22:50 18.1 45 6.95 6 13 15 1016.5 0.2 15.9 22.3 31.8 83.1 73.4 251.4
07/05 22:40 18.3 44 6.88 5.8 11 11 1016.4 0.2 15.7 22.2 31.5 82.2 72.4 247.9
07/05 22:30 18.1 44 6.8 5.7 15 20 1016.5 0.2 15.6 22.1 31.3 81.6 71.6 245.2
07/05 22:20 18.2 43 6.68 5.4 13 15 1016.6 0.2 15.3 21.9 30.8 80.4 70.2 240.0
07/05 22:10 18.9 41 6.64 5.4 15 19 1016.3 0.2 15.2 21.7 30.4 79.3 69.1 236.3
07/05 22:00 18.9 43 6.97 6.1 19 28 1016.2 0.2 15.9 22.2 31.5 82.4 72.9 249.7
07/05 21:50 17.8 47 7.13 6.3 17 17 1016.4 0.2 16.3 22.7 32.5 85.1 75.8 259.8
07/05 21:40 18 46 7.06 6.2 11 11 1016.5 0.2 16.1 22.5 32.2 84.2 74.8 256.3
07/05 21:30 18.5 43 6.8 5.7 7 13 1016.6 0.2 15.6 22.0 31.1 81.2 71.3 244.0
07/05 21:20 16.8 60 8.58 9 2 11 1016.2 0.2 19.4 25.1 38.4 100.7 94.7 325.8
07/05 21:10 15.9 77 10.43 11.9 11 13 1016 0.2 23.4 28.4 46.3 121.7 120.3 415.4
07/05 21:00 16 85 11.58 13.5 13 17 1015.9 0.2 25.8 30.3 51.1 134.6 136.2 470.9
07/05 20:50 16 86 11.72 13.7 11 11 1015.6 0.2 26.1 30.5 51.7 136.2 138.2 477.7
07/05 20:40 16 86 11.72 13.7 11 15 1015.5 0.2 26.1 30.5 51.7 136.2 138.2 477.7
07/05 20:30 15.4 83 10.9 12.5 9 13 1015.3 0.2 24.4 29.3 48.5 127.7 127.6 440.7
07/05 20:20 15.5 87 11.5 13.3 9 9 1015.1 0.2 25.7 30.3 51.0 134.4 135.9 469.7
07/05 20:10 16.1 86 11.79 13.8 7 7 1015 0.2 26.3 30.6 51.9 136.7 138.9 480.4
07/05 20:00 16 88 11.99 14 4 9 1015.2 0.2 26.7 31.0 52.9 139.3 142.0 491.1

Last Refresh: 08-May-2026 12:07:39

Bureau of Meteorology